Time;durP1;ratioP1;P1;durP2;ratioP2;P2;SDS_P1;SDS_P2;PMS_P1;PMS_P2;Temp;Humidity;BMP_temperature;BMP_pressure;BME280_temperature;BME280_humidity;BME280_pressure;Samples;Min_cycle;Max_cycle;Signal;HPM_P1;HPM_P2
2022/12/29 00:00:11;;;;;;;0.40;0.30;;;14.20;72.50;;;;;;5038421;28;20044;-55
2022/12/29 00:02:40;;;;;;;0.22;0.22;;;14.20;72.50;;;;;;5043983;28;20413;-54
2022/12/29 00:05:13;;;;;;;0.40;0.40;;;14.20;72.50;;;;;;5049250;28;20401;-55
2022/12/29 00:07:44;;;;;;;0.65;0.60;;;14.20;72.60;;;;;;5048517;28;20041;-53
2022/12/29 00:10:13;;;;;;;0.30;0.30;;;14.20;72.70;;;;;;5045786;28;20033;-53
2022/12/29 00:15:41;;;;;;;0.28;0.28;;;14.20;72.50;;;;;;5048596;28;20052;-53
2022/12/29 00:18:10;;;;;;;0.35;0.35;;;14.30;72.60;;;;;;5046313;28;20034;-52
2022/12/29 00:35:08;;;;;;;0.40;0.30;;;14.20;73.10;;;;;;5025764;28;20063;-54
2022/12/29 00:46:01;;;;;;;0.40;0.30;;;14.10;73.20;;;;;;5049774;28;20462;-54
2022/12/29 00:51:17;;;;;;;0.28;0.28;;;14.00;73.20;;;;;;5034767;28;20575;-53
2022/12/29 00:53:47;;;;;;;0.20;0.20;;;14.00;73.20;;;;;;5035232;28;20502;-55
2022/12/29 00:56:15;;;;;;;0.32;0.32;;;14.10;73.10;;;;;;5027148;28;20034;-54
2022/12/29 00:58:45;;;;;;;0.98;0.40;;;14.10;73.10;;;;;;5057288;28;20045;-54
2022/12/29 01:01:18;;;;;;;0.30;0.30;;;14.10;72.90;;;;;;5046143;28;20038;-53
2022/12/29 01:03:47;;;;;;;0.32;0.20;;;14.10;72.70;;;;;;5026315;28;20454;-52
2022/12/29 01:06:14;;;;;;;1.67;0.30;;;14.20;72.50;;;;;;5047123;28;20051;-55
2022/12/29 01:08:43;;;;;;;0.22;0.22;;;14.20;72.40;;;;;;5032936;28;20144;-54
2022/12/29 01:11:12;;;;;;;0.25;0.20;;;14.20;72.30;;;;;;5051566;28;20041;-55
2022/12/29 01:13:45;;;;;;;0.40;0.30;;;14.30;72.20;;;;;;5037718;28;20045;-53
2022/12/29 01:16:16;;;;;;;0.13;0.13;;;14.30;72.00;;;;;;5046051;28;20036;-53
2022/12/29 01:18:46;;;;;;;0.20;0.20;;;14.40;71.90;;;;;;5034724;28;20418;-53
2022/12/29 01:21:13;;;;;;;1.05;0.35;;;14.40;71.70;;;;;;5051261;28;20501;-55
2022/12/29 01:23:42;;;;;;;0.20;0.20;;;14.40;71.50;;;;;;5046332;28;20037;-54
2022/12/29 01:26:16;;;;;;;1.05;0.30;;;14.40;71.40;;;;;;5044610;28;20059;-53
2022/12/29 01:28:43;;;;;;;0.20;0.20;;;14.50;71.20;;;;;;5052110;28;20040;-53
2022/12/29 01:31:14;;;;;;;0.60;0.20;;;14.50;71.00;;;;;;5050933;28;20099;-53
2022/12/29 01:33:42;;;;;;;0.40;0.30;;;14.50;70.80;;;;;;5047418;28;20412;-54
2022/12/29 01:36:14;;;;;;;0.60;0.30;;;14.50;70.80;;;;;;5050706;28;20544;-55
2022/12/29 01:38:44;;;;;;;0.80;0.30;;;14.50;70.70;;;;;;5032846;28;20473;-55
2022/12/29 01:41:13;;;;;;;0.20;0.20;;;14.50;70.40;;;;;;5048849;28;20033;-53
2022/12/29 01:43:47;;;;;;;0.20;0.20;;;14.60;70.20;;;;;;5050572;28;20083;-52
2022/12/29 01:46:31;;;;;;;1.33;0.38;;;14.60;70.00;;;;;;5050501;28;20060;-52
2022/12/29 01:49:27;;;;;;;0.38;0.30;;;14.60;69.90;;;;;;5034132;28;20103;-53
2022/12/29 01:51:58;;;;;;;0.75;0.75;;;14.60;69.60;;;;;;5042606;28;20041;-53
2022/12/29 01:54:39;;;;;;;0.80;0.30;;;14.60;69.70;;;;;;5046630;28;20568;-53
2022/12/29 01:57:12;;;;;;;0.22;0.22;;;14.50;69.40;;;;;;5031592;28;20037;-53
2022/12/29 01:59:46;;;;;;;2.63;0.40;;;14.50;69.50;;;;;;5041396;28;20095;-55
2022/12/29 02:02:16;;;;;;;0.60;0.20;;;14.50;69.90;;;;;;5028189;28;20037;-51
2022/12/29 02:04:51;;;;;;;0.52;0.40;;;14.60;69.40;;;;;;5050825;28;20452;-53
2022/12/29 02:07:24;;;;;;;0.32;0.32;;;14.60;69.30;;;;;;5044057;28;20051;-52
2022/12/29 02:09:55;;;;;;;0.30;0.30;;;14.60;69.10;;;;;;5017156;28;20045;-55
2022/12/29 02:12:23;;;;;;;0.43;0.40;;;14.50;69.00;;;;;;5023639;28;20561;-52
2022/12/29 02:14:57;;;;;;;1.27;0.30;;;14.60;68.80;;;;;;5016968;28;20041;-54
2022/12/29 02:17:33;;;;;;;0.82;0.30;;;14.60;68.50;;;;;;5051134;28;20064;-53
2022/12/29 02:20:21;;;;;;;1.83;0.47;;;14.60;68.30;;;;;;5027406;28;20086;-54
2022/12/29 02:23:17;;;;;;;0.90;0.43;;;14.60;68.10;;;;;;5026462;28;20041;-53
2022/12/29 02:25:47;;;;;;;0.85;0.35;;;14.60;68.10;;;;;;5042990;28;20072;-55
2022/12/29 02:28:52;;;;;;;0.70;0.45;;;14.60;68.40;;;;;;5023160;28;20041;-54
2022/12/29 02:31:43;;;;;;;1.20;0.60;;;14.60;68.00;;;;;;5028193;28;20050;-52
2022/12/29 02:34:18;;;;;;;0.85;0.45;;;14.60;68.10;;;;;;5035432;28;20099;-55
2022/12/29 02:36:45;;;;;;;2.58;0.63;;;14.70;68.10;;;;;;5031427;28;20049;-53
2022/12/29 02:39:26;;;;;;;1.70;0.40;;;14.70;68.30;;;;;;5027221;28;20508;-53
2022/12/29 02:42:24;;;;;;;0.50;0.40;;;14.70;68.00;;;;;;5031764;28;20040;-52
2022/12/29 02:45:21;;;;;;;1.38;0.40;;;14.70;68.10;;;;;;5024855;28;20616;-54
2022/12/29 02:48:05;;;;;;;1.35;0.45;;;14.70;68.30;;;;;;5056684;28;20505;-55
2022/12/29 02:50:43;;;;;;;0.60;0.50;;;14.70;68.30;;;;;;5029377;28;20072;-54
2022/12/29 02:53:14;;;;;;;0.55;0.40;;;14.70;68.40;;;;;;5050427;28;20115;-54
2022/12/29 02:55:49;;;;;;;0.40;0.40;;;14.70;68.30;;;;;;5049491;28;20037;-53
2022/12/29 02:58:23;;;;;;;0.40;0.40;;;14.70;68.20;;;;;;5045678;28;20033;-55
2022/12/29 03:00:50;;;;;;;;;;;14.70;68.20;;;;;;5030859;28;20053;-55
2022/12/29 03:03:35;;;;;;;0.40;0.40;;;14.80;68.40;;;;;;5037465;28;19940;-55
2022/12/29 03:06:36;;;;;;;0.57;0.55;;;14.70;67.90;;;;;;5042503;28;20044;-53
2022/12/29 03:09:18;;;;;;;0.40;0.32;;;14.70;68.00;;;;;;5038677;28;20053;-55
2022/12/29 03:12:07;;;;;;;0.82;0.73;;;14.70;68.00;;;;;;5030926;28;20053;-53
2022/12/29 03:18:25;;;;;;;0.40;0.40;;;14.70;68.30;;;;;;5063380;28;20068;-53
2022/12/29 03:21:02;;;;;;;0.65;0.35;;;14.70;68.40;;;;;;4979972;28;20145;-53
2022/12/29 03:23:29;;;;;;;1.90;0.80;;;14.70;68.40;;;;;;5026964;28;20508;-54
2022/12/29 03:26:03;;;;;;;0.55;0.30;;;14.70;68.60;;;;;;5023952;28;20044;-55
2022/12/29 03:28:37;;;;;;;0.50;0.30;;;14.70;68.70;;;;;;5016289;28;20048;-54
2022/12/29 03:31:08;;;;;;;0.50;0.20;;;14.70;68.80;;;;;;5032142;28;20562;-54
2022/12/29 03:33:39;;;;;;;0.63;0.40;;;14.60;68.80;;;;;;5050081;28;20079;-54
2022/12/29 03:36:16;;;;;;;0.43;0.20;;;14.70;68.90;;;;;;5028575;28;20047;-53
2022/12/29 03:39:14;;;;;;;0.82;0.40;;;14.70;69.00;;;;;;5032573;28;20041;-53
2022/12/29 03:41:44;;;;;;;0.13;0.13;;;14.70;68.90;;;;;;5047485;28;20186;-51
2022/12/29 03:44:15;;;;;;;1.45;0.32;;;14.70;69.10;;;;;;5027241;28;20045;-53
2022/12/29 03:46:48;;;;;;;3.03;0.80;;;14.60;69.00;;;;;;5031503;28;20120;-54
2022/12/29 03:49:18;;;;;;;0.13;0.13;;;14.60;69.10;;;;;;5040797;28;20049;-53
2022/12/29 03:51:45;;;;;;;0.20;0.20;;;14.70;69.10;;;;;;5048232;28;20084;-52
2022/12/29 03:54:12;;;;;;;1.38;0.50;;;14.60;69.10;;;;;;5046117;28;20052;-50
2022/12/29 03:56:38;;;;;;;0.38;0.28;;;14.70;69.00;;;;;;5031034;28;20037;-53
2022/12/29 03:59:05;;;;;;;1.10;0.20;;;14.70;69.10;;;;;;5039860;28;20065;-53
2022/12/29 04:01:38;;;;;;;0.30;0.30;;;14.70;69.00;;;;;;5023257;28;20064;-55
2022/12/29 04:04:04;;;;;;;0.40;0.35;;;14.70;69.00;;;;;;5047135;28;20041;-55
2022/12/29 04:06:31;;;;;;;0.40;0.28;;;14.70;68.90;;;;;;5051755;28;20049;-53
2022/12/29 04:09:05;;;;;;;0.30;0.30;;;14.70;68.80;;;;;;5035971;28;20067;-53
2022/12/29 04:11:41;;;;;;;1.05;0.35;;;14.70;68.70;;;;;;5034339;28;20676;-55
2022/12/29 04:14:08;;;;;;;0.40;0.32;;;14.70;68.60;;;;;;5031159;28;20124;-53
2022/12/29 04:16:38;;;;;;;0.57;0.30;;;14.80;68.60;;;;;;5033599;28;20144;-53
2022/12/29 04:19:07;;;;;;;0.88;0.43;;;14.80;68.50;;;;;;5052840;28;20053;-55
2022/12/29 04:21:35;;;;;;;0.20;0.10;;;14.80;68.40;;;;;;5029253;28;20071;-53
2022/12/29 04:24:02;;;;;;;0.25;0.25;;;14.80;68.30;;;;;;5032664;28;20036;-53
2022/12/29 04:26:31;;;;;;;1.70;0.28;;;14.80;68.10;;;;;;5046265;28;20555;-52
2022/12/29 04:29:30;;;;;;;0.80;0.30;;;14.80;68.10;;;;;;4996412;28;20057;-55
2022/12/29 04:32:07;;;;;;;1.27;0.30;;;14.80;67.80;;;;;;5032539;28;20061;-55
2022/12/29 04:34:41;;;;;;;0.95;0.30;;;14.80;67.70;;;;;;5025231;28;20077;-53
2022/12/29 04:37:09;;;;;;;1.13;0.38;;;14.90;67.50;;;;;;5050694;28;20033;-55
2022/12/29 04:39:40;;;;;;;0.77;0.20;;;14.90;67.30;;;;;;5033969;28;20496;-54
2022/12/29 04:42:08;;;;;;;2.75;0.30;;;14.90;67.10;;;;;;5045519;28;20064;-55
2022/12/29 04:44:39;;;;;;;1.08;0.40;;;14.90;67.00;;;;;;5034922;28;20136;-55
2022/12/29 04:47:29;;;;;;;0.40;0.40;;;14.90;66.70;;;;;;5052393;28;20056;-52
2022/12/29 04:50:21;;;;;;;0.20;0.20;;;14.90;66.50;;;;;;5016880;28;20102;-55
2022/12/29 04:53:04;;;;;;;;;;;14.90;66.50;;;;;;5031728;28;20042;-50
2022/12/29 04:55:35;;;;;;;0.25;0.10;;;15.00;66.50;;;;;;5031495;28;19920;-55
2022/12/29 04:58:03;;;;;;;0.77;0.73;;;14.90;66.60;;;;;;5032326;28;20635;-55
2022/12/29 05:00:35;;;;;;;1.40;0.40;;;14.90;66.50;;;;;;5027297;28;20037;-53
2022/12/29 05:03:05;;;;;;;0.63;0.40;;;14.90;66.70;;;;;;5030043;28;20065;-55
2022/12/29 05:05:32;;;;;;;0.30;0.10;;;14.80;66.90;;;;;;5034334;28;20531;-55
2022/12/29 05:08:03;;;;;;;2.35;0.63;;;14.80;66.80;;;;;;5066968;28;20052;-54
2022/12/29 05:10:32;;;;;;;2.50;0.63;;;14.70;67.00;;;;;;5047942;28;20080;-55
2022/12/29 05:13:03;;;;;;;0.75;0.38;;;14.70;68.20;;;;;;5047269;28;20509;-55
2022/12/29 05:15:33;;;;;;;2.63;0.50;;;14.60;68.80;;;;;;5033975;28;20099;-55
2022/12/29 05:18:03;;;;;;;0.60;0.38;;;14.50;69.30;;;;;;5027252;28;20443;-54
2022/12/29 05:20:33;;;;;;;;;;;14.40;69.60;;;;;;5049225;28;20083;-54
2022/12/29 05:23:02;;;;;;;1.08;0.70;;;14.30;70.30;;;;;;5030210;28;19931;-55
2022/12/29 05:25:28;;;;;;;2.25;0.40;;;14.10;70.00;;;;;;5027347;28;20045;-57
2022/12/29 05:28:09;;;;;;;0.73;0.30;;;14.00;70.50;;;;;;5028040;28;20055;-55
2022/12/29 05:30:50;;;;;;;1.60;0.43;;;13.90;70.80;;;;;;5042118;28;20045;-52
2022/12/29 05:33:18;;;;;;;1.00;0.30;;;13.80;71.10;;;;;;5047310;28;20053;-55
2022/12/29 05:35:49;;;;;;;1.02;0.50;;;13.70;71.40;;;;;;5031478;28;20120;-55
2022/12/29 05:38:18;;;;;;;0.53;0.50;;;13.60;71.80;;;;;;5047051;28;20046;-54
2022/12/29 05:40:55;;;;;;;0.43;0.40;;;13.50;72.00;;;;;;5032308;28;20041;-55
2022/12/29 05:43:47;;;;;;;1.05;0.60;;;13.40;72.20;;;;;;5054134;28;20103;-53
2022/12/29 05:46:29;;;;;;;1.08;0.40;;;13.30;72.60;;;;;;5023090;28;20564;-53
2022/12/29 05:49:25;;;;;;;0.90;0.55;;;13.30;72.70;;;;;;5019374;28;20056;-52
2022/12/29 05:52:07;;;;;;;0.65;0.47;;;13.20;72.70;;;;;;5013179;28;20512;-51
2022/12/29 05:54:36;;;;;;;1.70;0.35;;;13.20;73.00;;;;;;5037684;28;20098;-51
2022/12/29 05:57:09;;;;;;;0.60;0.60;;;13.20;73.10;;;;;;5030616;28;20036;-52
2022/12/29 05:59:37;;;;;;;0.75;0.40;;;13.10;73.20;;;;;;5032402;28;20041;-52
2022/12/29 06:02:04;;;;;;;0.75;0.50;;;13.10;73.20;;;;;;5025444;28;20037;-54
2022/12/29 06:04:34;;;;;;;1.48;0.50;;;13.10;73.20;;;;;;5031454;28;20072;-53
2022/12/29 06:07:01;;;;;;;1.20;0.30;;;13.10;73.50;;;;;;5038255;28;20061;-51
2022/12/29 06:09:41;;;;;;;3.65;0.40;;;13.10;73.40;;;;;;5033583;28;20064;-55
2022/12/29 06:12:13;;;;;;;1.73;0.70;;;13.20;73.40;;;;;;5041460;28;20689;-54
2022/12/29 06:14:46;;;;;;;2.33;0.45;;;13.20;73.20;;;;;;5025494;28;20040;-54
2022/12/29 06:17:13;;;;;;;1.85;0.80;;;13.20;73.40;;;;;;5049318;28;20025;-55
2022/12/29 06:19:45;;;;;;;1.30;0.75;;;13.20;73.10;;;;;;5041790;28;20075;-52
2022/12/29 06:22:17;;;;;;;0.75;0.50;;;13.20;73.00;;;;;;5055772;28;20182;-52
2022/12/29 06:24:44;;;;;;;1.20;0.40;;;13.30;72.80;;;;;;5017250;28;20037;-52
2022/12/29 06:27:13;;;;;;;1.52;0.98;;;13.30;72.60;;;;;;5025928;28;20115;-54
2022/12/29 06:29:40;;;;;;;3.90;0.80;;;13.30;72.30;;;;;;5030700;28;20044;-54
2022/12/29 06:32:09;;;;;;;3.42;0.63;;;13.40;72.10;;;;;;5032249;28;20515;-56
2022/12/29 06:34:41;;;;;;;2.72;0.73;;;13.40;71.80;;;;;;5032807;28;20055;-54
2022/12/29 06:37:15;;;;;;;0.93;0.40;;;13.40;71.40;;;;;;5031203;28;20102;-52
2022/12/29 06:39:44;;;;;;;1.23;0.68;;;13.40;71.00;;;;;;5050602;28;20041;-53
2022/12/29 06:42:15;;;;;;;1.75;0.70;;;13.50;71.00;;;;;;5028892;28;20045;-55
2022/12/29 06:44:47;;;;;;;2.03;0.40;;;13.50;71.00;;;;;;5031877;28;20128;-53
2022/12/29 06:47:14;;;;;;;2.53;0.65;;;13.60;70.80;;;;;;5047274;28;20068;-54
2022/12/29 06:49:41;;;;;;;0.95;0.70;;;13.60;70.40;;;;;;5030864;28;20069;-55
2022/12/29 06:52:07;;;;;;;1.88;0.60;;;13.70;70.40;;;;;;5037503;28;20517;-55
2022/12/29 06:54:38;;;;;;;1.45;0.50;;;13.70;70.00;;;;;;5049404;28;20501;-55
2022/12/29 06:57:09;;;;;;;1.70;0.73;;;13.70;69.60;;;;;;5049086;28;20041;-55
2022/12/29 06:59:40;;;;;;;2.10;0.60;;;13.70;69.30;;;;;;5040850;28;20049;-55
2022/12/29 07:02:11;;;;;;;0.98;0.43;;;13.80;68.80;;;;;;5045784;28;20037;-55
2022/12/29 07:04:40;;;;;;;2.35;0.57;;;13.80;68.80;;;;;;5030916;28;20079;-55
2022/12/29 07:07:07;;;;;;;6.18;0.95;;;13.80;68.50;;;;;;5034567;28;20047;-55
2022/12/29 07:09:41;;;;;;;5.05;1.08;;;13.80;68.10;;;;;;5034769;28;20524;-55
2022/12/29 07:12:07;;;;;;;2.05;0.60;;;13.80;67.80;;;;;;5034072;28;20141;-55
2022/12/29 07:14:41;;;;;;;4.03;0.95;;;13.80;67.90;;;;;;5042097;28;20052;-55
2022/12/29 07:17:09;;;;;;;0.95;0.80;;;13.90;67.80;;;;;;5019581;28;20041;-55
2022/12/29 07:19:38;;;;;;;1.60;0.60;;;13.90;67.60;;;;;;5037458;28;20416;-54
2022/12/29 07:22:05;;;;;;;1.20;0.60;;;13.90;67.30;;;;;;5045327;28;20043;-54
2022/12/29 07:24:33;;;;;;;1.88;0.80;;;13.90;67.30;;;;;;5041646;28;20069;-55
2022/12/29 07:27:07;;;;;;;1.27;0.77;;;13.90;67.30;;;;;;5044614;28;20052;-53
2022/12/29 07:29:36;;;;;;;2.58;0.80;;;13.90;67.00;;;;;;5046420;28;20121;-53
2022/12/29 07:32:06;;;;;;;2.05;0.80;;;13.90;66.90;;;;;;5048631;28;20044;-55
2022/12/29 07:34:33;;;;;;;4.30;1.25;;;14.00;66.90;;;;;;5040099;28;20045;-54
2022/12/29 07:37:00;;;;;;;2.67;0.82;;;14.00;66.70;;;;;;5040837;28;20033;-55
2022/12/29 07:39:31;;;;;;;4.35;1.35;;;14.00;66.50;;;;;;5042466;28;20052;-55
2022/12/29 07:41:58;;;;;;;5.65;1.20;;;14.00;66.40;;;;;;5045976;28;20043;-55
2022/12/29 07:44:37;;;;;;;1.85;0.90;;;14.00;66.20;;;;;;5033340;28;20044;-55
2022/12/29 07:47:25;;;;;;;1.90;0.90;;;14.00;66.10;;;;;;5045716;28;20063;-54
2022/12/29 07:49:57;;;;;;;2.03;0.95;;;14.00;66.20;;;;;;5048011;28;20064;-55
2022/12/29 07:52:24;;;;;;;2.63;1.38;;;14.00;66.50;;;;;;5037478;28;20041;-55
2022/12/29 07:54:51;;;;;;;5.75;1.40;;;14.00;66.20;;;;;;5040516;28;20128;-53
2022/12/29 07:57:23;;;;;;;3.22;1.50;;;14.00;66.10;;;;;;5042647;28;20048;-53
2022/12/29 08:00:00;;;;;;;3.67;0.98;;;14.00;65.90;;;;;;5044724;28;20048;-54
2022/12/29 08:02:29;;;;;;;3.03;1.30;;;14.00;65.90;;;;;;5042405;28;20128;-55
2022/12/29 08:04:58;;;;;;;4.22;1.48;;;14.00;65.80;;;;;;5613686;23;20579;-55
2022/12/29 08:07:24;;;;;;;5.25;1.52;;;14.00;65.60;;;;;;5064564;28;20041;-54
2022/12/29 08:09:51;;;;;;;4.72;1.27;;;14.00;65.60;;;;;;5056790;28;20396;-55
2022/12/29 08:12:19;;;;;;;5.82;1.85;;;14.00;65.60;;;;;;5048186;28;20060;-54
2022/12/29 08:14:45;;;;;;;4.40;1.58;;;14.00;65.60;;;;;;5070117;28;20072;-54
2022/12/29 08:17:12;;;;;;;3.58;1.00;;;14.00;65.70;;;;;;5060852;28;20128;-56
2022/12/29 08:19:39;;;;;;;3.58;1.15;;;14.00;65.90;;;;;;5044968;28;20112;-51
2022/12/29 08:22:06;;;;;;;3.38;0.95;;;14.00;65.50;;;;;;5082165;22;20037;-55
2022/12/29 08:24:33;;;;;;;2.97;1.17;;;14.00;65.40;;;;;;5066620;28;20086;-55
2022/12/29 08:26:59;;;;;;;2.92;1.17;;;14.00;65.20;;;;;;5068660;28;20122;-56
2022/12/29 08:29:34;;;;;;;1.52;0.80;;;14.00;65.20;;;;;;5069295;28;20128;-50
2022/12/29 08:32:01;;;;;;;2.78;1.15;;;14.00;65.20;;;;;;5064557;28;20111;-52
2022/12/29 08:34:28;;;;;;;5.40;1.77;;;13.90;65.10;;;;;;5048290;28;20136;-53
2022/12/29 08:36:54;;;;;;;1.98;0.63;;;13.90;65.10;;;;;;5049917;28;20041;-54
2022/12/29 08:39:21;;;;;;;2.63;0.70;;;13.90;65.30;;;;;;5058031;28;20155;-54
2022/12/29 08:41:50;;;;;;;3.20;1.30;;;13.90;65.50;;;;;;5055750;28;20044;-53
2022/12/29 08:44:17;;;;;;;3.80;0.75;;;13.90;65.60;;;;;;5033616;28;20071;-52
2022/12/29 08:46:43;;;;;;;5.65;1.10;;;13.90;65.70;;;;;;5058269;28;20044;-54
2022/12/29 08:49:10;;;;;;;4.45;1.20;;;13.90;65.50;;;;;;5049707;28;20061;-54
2022/12/29 08:51:37;;;;;;;3.05;1.33;;;13.90;65.40;;;;;;5051956;28;20037;-53
2022/12/29 08:54:03;;;;;;;3.47;0.98;;;13.90;65.40;;;;;;5049024;28;20423;-53
2022/12/29 08:56:33;;;;;;;5.35;1.00;;;14.00;65.50;;;;;;5033621;28;20520;-56
2022/12/29 08:59:00;;;;;;;3.00;1.33;;;14.00;65.40;;;;;;5034498;28;20041;-56
2022/12/29 09:01:30;;;;;;;4.78;1.27;;;14.00;65.40;;;;;;5043768;28;20037;-56
2022/12/29 09:03:57;;;;;;;4.57;1.10;;;14.00;65.40;;;;;;5054326;28;20373;-56
2022/12/29 09:06:43;;;;;;;3.38;1.27;;;14.00;65.10;;;;;;5044646;28;20045;-55
2022/12/29 09:09:10;;;;;;;3.40;1.02;;;14.10;65.00;;;;;;5046590;28;20056;-53
2022/12/29 09:11:37;;;;;;;3.22;0.82;;;14.10;64.80;;;;;;5050504;28;20051;-55
2022/12/29 09:14:04;;;;;;;4.22;1.10;;;14.10;64.40;;;;;;5053840;28;20049;-55
2022/12/29 09:16:31;;;;;;;3.67;1.13;;;14.10;64.10;;;;;;5051244;28;20066;-50
2022/12/29 09:18:58;;;;;;;4.70;1.30;;;14.20;64.10;;;;;;5053676;28;20509;-54
2022/12/29 09:21:24;;;;;;;3.35;1.52;;;14.20;63.90;;;;;;5048546;28;20084;-54
2022/12/29 09:23:52;;;;;;;4.82;1.02;;;14.20;63.90;;;;;;5046334;28;20120;-54
2022/12/29 09:26:18;;;;;;;3.13;1.27;;;14.20;63.80;;;;;;5050582;28;20124;-55
2022/12/29 09:28:45;;;;;;;3.00;0.88;;;14.20;63.60;;;;;;5047042;28;20033;-54
2022/12/29 09:31:27;;;;;;;3.08;0.70;;;14.20;63.60;;;;;;5036801;28;20762;-55
2022/12/29 09:33:54;;;;;;;5.85;1.10;;;14.20;62.70;;;;;;5035349;28;20037;-49
2022/12/29 09:36:21;;;;;;;3.80;1.27;;;14.20;63.30;;;;;;5049173;28;20043;-50
2022/12/29 09:38:47;;;;;;;3.15;0.90;;;14.30;63.30;;;;;;5025503;28;20056;-51
2022/12/29 09:41:24;;;;;;;4.38;0.80;;;14.30;63.00;;;;;;5008176;28;20052;-52
2022/12/29 09:44:12;;;;;;;1.42;0.57;;;14.30;62.80;;;;;;5009177;28;20044;-50
2022/12/29 09:46:45;;;;;;;3.08;0.95;;;14.30;62.10;;;;;;5010300;28;20117;-53
2022/12/29 09:49:31;;;;;;;4.38;1.20;;;14.30;62.00;;;;;;5014232;28;20125;-53
2022/12/29 09:52:14;;;;;;;5.15;1.75;;;14.30;62.40;;;;;;5000629;28;20045;-50
2022/12/29 09:54:53;;;;;;;3.08;1.35;;;14.30;62.00;;;;;;5002637;28;20049;-54
2022/12/29 09:57:59;;;;;;;2.75;0.80;;;14.30;61.70;;;;;;5010668;28;20424;-51
2022/12/29 10:01:12;;;;;;;2.42;0.90;;;14.30;61.40;;;;;;4999311;28;20121;-53
2022/12/29 10:03:48;;;;;;;4.60;1.02;;;14.30;61.50;;;;;;4985316;28;20052;-53
2022/12/29 10:06:23;;;;;;;8.05;1.15;;;14.30;61.20;;;;;;5006767;28;20030;-50
2022/12/29 10:08:58;;;;;;;3.40;0.80;;;14.30;61.40;;;;;;5002698;28;20049;-51
2022/12/29 10:11:53;;;;;;;8.05;1.40;;;14.30;61.20;;;;;;5006657;28;20080;-52
2022/12/29 10:14:22;;;;;;;7.00;1.45;;;14.20;60.50;;;;;;5012870;28;20057;-49
2022/12/29 10:17:17;;;;;;;5.03;1.20;;;14.20;61.10;;;;;;5007769;28;20120;-52
2022/12/29 10:20:15;;;;;;;4.25;1.08;;;14.20;60.80;;;;;;4990010;28;20044;-49
2022/12/29 10:22:45;;;;;;;5.85;1.40;;;14.20;60.50;;;;;;5005869;28;20481;-50
2022/12/29 10:25:25;;;;;;;6.78;1.45;;;14.20;61.20;;;;;;5005510;28;20053;-53
2022/12/29 10:28:01;;;;;;;5.78;1.52;;;14.20;60.60;;;;;;5003842;28;20041;-50
2022/12/29 10:30:29;;;;;;;3.38;1.27;;;14.20;61.20;;;;;;4988777;28;20052;-50
2022/12/29 10:33:04;;;;;;;3.28;0.90;;;14.20;61.20;;;;;;4992293;28;20038;-52
2022/12/29 10:35:35;;;;;;;7.22;1.83;;;14.20;61.60;;;;;;4998580;28;20414;-49
2022/12/29 10:38:20;;;;;;;3.53;1.07;;;14.20;61.00;;;;;;5008782;28;20038;-52
2022/12/29 10:41:08;;;;;;;3.90;1.15;;;14.20;60.80;;;;;;4999340;28;20038;-51
2022/12/29 10:43:48;;;;;;;4.65;1.08;;;14.20;60.70;;;;;;5016381;28;20121;-50
2022/12/29 10:46:28;;;;;;;5.75;1.40;;;14.30;60.60;;;;;;5029869;28;20489;-52
2022/12/29 10:48:55;;;;;;;7.43;1.48;;;14.30;60.70;;;;;;5020305;28;20092;-53
2022/12/29 10:51:24;;;;;;;5.95;1.10;;;14.30;60.80;;;;;;5004609;28;20038;-55
2022/12/29 10:54:19;;;;;;;5.18;1.58;;;14.30;60.60;;;;;;5023846;28;20052;-51
2022/12/29 10:56:53;;;;;;;5.60;1.20;;;14.30;60.00;;;;;;4991654;28;20084;-54
2022/12/29 10:59:27;;;;;;;3.53;1.02;;;14.40;60.30;;;;;;5009283;28;20069;-54
2022/12/29 11:02:09;;;;;;;4.82;1.30;;;14.40;60.00;;;;;;5009974;28;20421;-51
2022/12/29 11:05:09;;;;;;;4.10;0.90;;;14.40;60.00;;;;;;5007208;28;20092;-53
2022/12/29 11:07:36;;;;;;;5.82;1.30;;;14.50;59.80;;;;;;5003707;28;20421;-50
2022/12/29 11:10:40;;;;;;;3.03;1.10;;;14.50;60.00;;;;;;5009274;28;20052;-50
2022/12/29 11:13:13;;;;;;;4.50;1.02;;;14.60;59.60;;;;;;5010196;28;20703;-51
2022/12/29 11:15:40;;;;;;;;;;;14.60;59.60;;;;;;5002281;28;20052;-51
2022/12/29 11:18:24;;;;;;;5.28;1.20;;;14.70;60.50;;;;;;5007503;28;19921;-50
2022/12/29 11:21:00;;;;;;;4.07;1.42;;;14.70;59.30;;;;;;5008110;28;20092;-51
2022/12/29 11:23:35;;;;;;;2.63;1.23;;;14.70;59.10;;;;;;5008602;28;20128;-53
2022/12/29 11:26:23;;;;;;;5.22;1.48;;;14.70;58.90;;;;;;5006750;28;20493;-51
2022/12/29 11:29:14;;;;;;;3.33;1.05;;;14.70;59.00;;;;;;5003883;28;20103;-54
2022/12/29 11:31:42;;;;;;;4.75;1.38;;;14.70;58.60;;;;;;5009353;28;20038;-51
2022/12/29 11:34:16;;;;;;;5.03;1.08;;;14.70;59.10;;;;;;5008940;28;20728;-55
2022/12/29 11:36:42;;;;;;;4.57;1.40;;;14.70;59.10;;;;;;5002991;28;20489;-50
2022/12/29 11:39:27;;;;;;;4.10;1.20;;;14.70;58.90;;;;;;5009269;28;20042;-55
2022/12/29 11:41:58;;;;;;;2.70;1.15;;;14.70;58.20;;;;;;5005320;28;20544;-51
2022/12/29 11:44:26;;;;;;;3.88;1.25;;;14.70;58.70;;;;;;5003219;28;20053;-50
2022/12/29 11:46:54;;;;;;;5.18;1.70;;;14.70;58.70;;;;;;5009173;28;20064;-50
2022/12/29 11:49:25;;;;;;;4.45;1.20;;;14.70;58.60;;;;;;5009156;28;20038;-52
2022/12/29 11:51:58;;;;;;;6.20;1.10;;;14.70;58.50;;;;;;5005832;28;20044;-54
2022/12/29 11:54:33;;;;;;;3.83;1.52;;;14.60;58.50;;;;;;5002896;28;20026;-52
2022/12/29 11:57:12;;;;;;;4.05;1.02;;;14.60;58.10;;;;;;5009562;28;20037;-49
2022/12/29 11:59:42;;;;;;;5.13;1.25;;;14.60;58.00;;;;;;5013951;28;20042;-54
2022/12/29 12:02:28;;;;;;;5.32;1.33;;;14.60;58.30;;;;;;5005354;28;20043;-51
2022/12/29 12:05:18;;;;;;;7.20;5.13;;;14.60;57.80;;;;;;5003629;28;20121;-53
2022/12/29 12:08:17;;;;;;;12.00;10.32;;;14.60;58.00;;;;;;4999182;28;20085;-52
2022/12/29 12:10:54;;;;;;;5.00;4.50;;;14.60;58.40;;;;;;5003000;28;20100;-51
2022/12/29 12:13:51;;;;;;;6.85;5.38;;;14.60;58.50;;;;;;4985345;28;20069;-52
2022/12/29 12:16:24;;;;;;;4.72;2.20;;;14.60;58.30;;;;;;5005522;28;20092;-53
2022/12/29 12:19:16;;;;;;;11.50;7.00;;;14.60;58.40;;;;;;4995623;28;20095;-54
2022/12/29 12:21:50;;;;;;;7.75;3.22;;;14.60;58.10;;;;;;5002661;28;20116;-53
2022/12/29 12:24:18;;;;;;;6.28;2.45;;;14.60;58.50;;;;;;5007924;28;20046;-52
2022/12/29 12:27:01;;;;;;;3.65;2.50;;;14.60;58.80;;;;;;5004528;28;20038;-50
2022/12/29 12:29:35;;;;;;;5.03;1.38;;;14.60;58.40;;;;;;5012206;28;20117;-50
2022/12/29 12:32:25;;;;;;;5.13;2.17;;;14.60;58.50;;;;;;5005821;28;20499;-50
2022/12/29 12:34:54;;;;;;;4.50;1.33;;;14.60;58.30;;;;;;5005114;28;20062;-54
2022/12/29 12:37:50;;;;;;;5.20;1.95;;;14.60;58.70;;;;;;5011364;28;20412;-51
2022/12/29 12:40:48;;;;;;;6.45;1.80;;;14.60;58.40;;;;;;5012546;28;20046;-54
2022/12/29 12:43:25;;;;;;;3.53;1.10;;;14.60;58.50;;;;;;5010249;28;20061;-52
2022/12/29 12:46:11;;;;;;;5.68;1.67;;;14.60;58.30;;;;;;5005056;28;20128;-54
2022/12/29 12:49:19;;;;;;;6.50;1.35;;;14.70;58.30;;;;;;5006234;28;20052;-51
2022/12/29 12:51:57;;;;;;;4.13;1.13;;;14.60;58.30;;;;;;5006920;28;20412;-53
2022/12/29 12:55:04;;;;;;;5.82;1.73;;;14.60;58.00;;;;;;5012097;28;20046;-50
2022/12/29 12:57:57;;;;;;;4.40;1.67;;;14.70;58.20;;;;;;5009758;28;20108;-50
2022/12/29 13:00:24;;;;;;;4.38;1.38;;;14.70;59.10;;;;;;5009103;28;20044;-52
2022/12/29 13:03:02;;;;;;;4.65;1.52;;;14.70;59.20;;;;;;5012101;28;20034;-51
2022/12/29 13:05:59;;;;;;;3.67;0.98;;;14.60;58.60;;;;;;5010345;28;20050;-53
2022/12/29 13:08:39;;;;;;;1.40;1.17;;;14.60;58.30;;;;;;5000679;28;20643;-51
2022/12/29 13:11:08;;;;;;;2.65;1.40;;;14.60;59.40;;;;;;5009925;28;20042;-51
2022/12/29 13:13:50;;;;;;;4.10;1.25;;;14.50;58.40;;;;;;5012338;28;20137;-53
2022/12/29 13:16:56;;;;;;;2.47;1.33;;;14.50;58.50;;;;;;4985833;28;20046;-54
2022/12/29 13:19:46;;;;;;;2.95;0.77;;;14.50;58.40;;;;;;4984174;28;20050;-51
2022/12/29 13:22:34;;;;;;;2.80;1.02;;;14.50;58.70;;;;;;5010117;28;20038;-51
2022/12/29 13:25:38;;;;;;;5.57;1.75;;;14.50;58.30;;;;;;5004910;28;20136;-54
2022/12/29 13:28:43;;;;;;;4.63;1.08;;;14.50;58.30;;;;;;5004415;28;20058;-52
2022/12/29 13:31:33;;;;;;;4.43;1.60;;;14.50;58.10;;;;;;5009917;28;20048;-52
2022/12/29 13:34:16;;;;;;;2.03;0.98;;;14.50;58.10;;;;;;5005535;28;20444;-51
2022/12/29 13:36:48;;;;;;;3.53;1.10;;;14.50;58.30;;;;;;5008325;28;20038;-50
2022/12/29 13:39:30;;;;;;;2.15;0.73;;;14.50;58.30;;;;;;5013495;28;20048;-51
2022/12/29 13:41:57;;;;;;;;;;;14.50;58.00;;;;;;5011294;28;20038;-54
2022/12/29 13:44:27;;;;;;;2.88;1.55;;;14.50;58.60;;;;;;5018978;28;19927;-53
2022/12/29 13:47:18;;;;;;;3.38;1.23;;;14.50;58.30;;;;;;5004867;28;20038;-51
2022/12/29 13:49:45;;;;;;;3.33;0.80;;;14.50;58.10;;;;;;5004377;28;20069;-51
2022/12/29 13:52:24;;;;;;;2.30;0.70;;;14.50;58.30;;;;;;5010302;28;20042;-53
2022/12/29 13:55:31;;;;;;;3.03;1.42;;;14.40;58.00;;;;;;5012730;28;20577;-51
2022/12/29 13:58:09;;;;;;;4.18;0.93;;;14.50;57.90;;;;;;5000293;28;20073;-50
2022/12/29 14:01:02;;;;;;;6.22;1.08;;;14.50;58.40;;;;;;5008968;28;20524;-53